sensor_id;sensor_type;location;lat;lon;timestamp;temperature;humidity
12413;DHT22;13877;18.896;-99.222;2023-07-13T00:01:51;32.30;75.10
12413;DHT22;13877;18.896;-99.222;2023-07-13T00:04:18;32.50;77.20
12413;DHT22;13877;18.896;-99.222;2023-07-13T00:06:45;32.10;78.10
12413;DHT22;13877;18.896;-99.222;2023-07-13T00:09:15;32.20;74.70
12413;DHT22;13877;18.896;-99.222;2023-07-13T00:11:42;33.20;73.80
12413;DHT22;13877;18.896;-99.222;2023-07-13T00:14:09;33.20;72.90
12413;DHT22;13877;18.896;-99.222;2023-07-13T00:16:37;32.70;72.10
12413;DHT22;13877;18.896;-99.222;2023-07-13T00:19:04;32.90;72.80
12413;DHT22;13877;18.896;-99.222;2023-07-13T00:21:31;32.70;74.10
12413;DHT22;13877;18.896;-99.222;2023-07-13T00:23:57;32.70;74.70
12413;DHT22;13877;18.896;-99.222;2023-07-13T00:26:24;31.20;73.00
12413;DHT22;13877;18.896;-99.222;2023-07-13T00:28:50;30.70;76.60
12413;DHT22;13877;18.896;-99.222;2023-07-13T00:31:17;30.90;75.70
12413;DHT22;13877;18.896;-99.222;2023-07-13T00:33:44;30.70;77.30
12413;DHT22;13877;18.896;-99.222;2023-07-13T00:36:10;30.50;75.40
12413;DHT22;13877;18.896;-99.222;2023-07-13T00:38:36;30.50;77.20
12413;DHT22;13877;18.896;-99.222;2023-07-13T00:41:03;30.30;75.70
12413;DHT22;13877;18.896;-99.222;2023-07-13T00:43:30;30.00;82.40
12413;DHT22;13877;18.896;-99.222;2023-07-13T00:46:17;29.50;81.90
12413;DHT22;13877;18.896;-99.222;2023-07-13T00:48:43;29.20;79.70
12413;DHT22;13877;18.896;-99.222;2023-07-13T00:51:11;29.00;81.90
12413;DHT22;13877;18.896;-99.222;2023-07-13T00:53:40;28.60;81.40
12413;DHT22;13877;18.896;-99.222;2023-07-13T00:56:07;28.10;88.00
12413;DHT22;13877;18.896;-99.222;2023-07-13T00:58:33;27.80;84.80
12413;DHT22;13877;18.896;-99.222;2023-07-13T01:01:01;27.50;91.70
12413;DHT22;13877;18.896;-99.222;2023-07-13T01:03:27;27.20;90.20
12413;DHT22;13877;18.896;-99.222;2023-07-13T01:05:54;27.00;90.20
12413;DHT22;13877;18.896;-99.222;2023-07-13T01:08:21;26.70;87.10
12413;DHT22;13877;18.896;-99.222;2023-07-13T01:10:52;26.60;87.70
12413;DHT22;13877;18.896;-99.222;2023-07-13T01:13:18;26.50;88.80
12413;DHT22;13877;18.896;-99.222;2023-07-13T01:15:47;26.50;86.20
12413;DHT22;13877;18.896;-99.222;2023-07-13T01:18:20;26.50;86.90
12413;DHT22;13877;18.896;-99.222;2023-07-13T01:20:50;26.40;86.00
12413;DHT22;13877;18.896;-99.222;2023-07-13T01:23:17;26.50;85.00
12413;DHT22;13877;18.896;-99.222;2023-07-13T01:25:44;26.60;87.40
12413;DHT22;13877;18.896;-99.222;2023-07-13T01:28:11;26.60;87.30
12413;DHT22;13877;18.896;-99.222;2023-07-13T01:30:39;26.60;88.10
12413;DHT22;13877;18.896;-99.222;2023-07-13T01:33:06;26.60;89.50
12413;DHT22;13877;18.896;-99.222;2023-07-13T01:35:33;26.60;89.90
12413;DHT22;13877;18.896;-99.222;2023-07-13T01:38:00;26.50;90.00
12413;DHT22;13877;18.896;-99.222;2023-07-13T01:40:27;26.50;90.40
12413;DHT22;13877;18.896;-99.222;2023-07-13T01:42:54;26.40;90.70
12413;DHT22;13877;18.896;-99.222;2023-07-13T01:45:21;26.30;91.60
12413;DHT22;13877;18.896;-99.222;2023-07-13T01:47:47;26.20;90.80
12413;DHT22;13877;18.896;-99.222;2023-07-13T01:50:13;26.20;90.70
12413;DHT22;13877;18.896;-99.222;2023-07-13T01:52:40;26.20;91.20
12413;DHT22;13877;18.896;-99.222;2023-07-13T01:55:06;26.20;91.60
12413;DHT22;13877;18.896;-99.222;2023-07-13T01:57:33;26.20;91.30
12413;DHT22;13877;18.896;-99.222;2023-07-13T02:00:02;26.40;87.20
12413;DHT22;13877;18.896;-99.222;2023-07-13T02:02:41;26.40;87.50
12413;DHT22;13877;18.896;-99.222;2023-07-13T02:05:09;26.40;81.40
12413;DHT22;13877;18.896;-99.222;2023-07-13T02:07:36;26.40;80.30
12413;DHT22;13877;18.896;-99.222;2023-07-13T02:10:03;26.50;78.30
12413;DHT22;13877;18.896;-99.222;2023-07-13T02:12:30;26.50;77.00
12413;DHT22;13877;18.896;-99.222;2023-07-13T02:14:57;26.40;75.20
12413;DHT22;13877;18.896;-99.222;2023-07-13T02:17:23;26.40;75.10
12413;DHT22;13877;18.896;-99.222;2023-07-13T02:19:49;26.40;74.30
12413;DHT22;13877;18.896;-99.222;2023-07-13T02:22:16;26.30;74.90
12413;DHT22;13877;18.896;-99.222;2023-07-13T02:24:42;26.20;74.50
12413;DHT22;13877;18.896;-99.222;2023-07-13T02:27:09;26.20;75.30
12413;DHT22;13877;18.896;-99.222;2023-07-13T02:29:36;26.10;74.90
12413;DHT22;13877;18.896;-99.222;2023-07-13T02:32:02;26.10;74.70
12413;DHT22;13877;18.896;-99.222;2023-07-13T02:34:29;26.00;73.90
12413;DHT22;13877;18.896;-99.222;2023-07-13T02:36:56;26.00;73.00
12413;DHT22;13877;18.896;-99.222;2023-07-13T02:39:22;26.00;74.80
12413;DHT22;13877;18.896;-99.222;2023-07-13T02:41:48;25.90;73.00
12413;DHT22;13877;18.896;-99.222;2023-07-13T02:44:15;25.90;73.00
12413;DHT22;13877;18.896;-99.222;2023-07-13T02:46:42;25.90;74.00
12413;DHT22;13877;18.896;-99.222;2023-07-13T02:49:08;25.90;74.40
12413;DHT22;13877;18.896;-99.222;2023-07-13T02:51:35;25.90;76.60
12413;DHT22;13877;18.896;-99.222;2023-07-13T02:54:02;25.80;76.00
12413;DHT22;13877;18.896;-99.222;2023-07-13T02:56:29;25.60;77.80
12413;DHT22;13877;18.896;-99.222;2023-07-13T02:58:56;25.50;75.80
12413;DHT22;13877;18.896;-99.222;2023-07-13T03:01:23;25.40;76.80
12413;DHT22;13877;18.896;-99.222;2023-07-13T03:03:51;25.50;78.80
12413;DHT22;13877;18.896;-99.222;2023-07-13T03:06:18;25.50;79.90
12413;DHT22;13877;18.896;-99.222;2023-07-13T03:08:49;25.40;81.60
12413;DHT22;13877;18.896;-99.222;2023-07-13T03:11:18;25.40;82.70
12413;DHT22;13877;18.896;-99.222;2023-07-13T03:13:48;25.30;82.70
12413;DHT22;13877;18.896;-99.222;2023-07-13T03:16:15;25.30;85.80
12413;DHT22;13877;18.896;-99.222;2023-07-13T03:18:45;25.30;87.00
12413;DHT22;13877;18.896;-99.222;2023-07-13T03:21:12;25.30;84.30
12413;DHT22;13877;18.896;-99.222;2023-07-13T03:23:39;25.40;83.50
12413;DHT22;13877;18.896;-99.222;2023-07-13T03:26:08;25.50;84.30
12413;DHT22;13877;18.896;-99.222;2023-07-13T03:28:34;25.40;85.20
12413;DHT22;13877;18.896;-99.222;2023-07-13T03:31:03;25.30;84.80
12413;DHT22;13877;18.896;-99.222;2023-07-13T03:33:32;25.20;88.80
12413;DHT22;13877;18.896;-99.222;2023-07-13T03:35:58;25.20;87.00
12413;DHT22;13877;18.896;-99.222;2023-07-13T03:38:26;25.20;87.40
12413;DHT22;13877;18.896;-99.222;2023-07-13T03:40:53;25.30;85.00
12413;DHT22;13877;18.896;-99.222;2023-07-13T03:43:20;25.50;85.00
12413;DHT22;13877;18.896;-99.222;2023-07-13T03:45:47;25.50;86.20
12413;DHT22;13877;18.896;-99.222;2023-07-13T03:48:13;25.60;88.70
12413;DHT22;13877;18.896;-99.222;2023-07-13T03:50:40;25.70;90.40
12413;DHT22;13877;18.896;-99.222;2023-07-13T03:53:06;25.50;92.60
12413;DHT22;13877;18.896;-99.222;2023-07-13T03:55:33;25.20;93.20
12413;DHT22;13877;18.896;-99.222;2023-07-13T03:58:23;25.10;93.10
12413;DHT22;13877;18.896;-99.222;2023-07-13T04:00:48;25.00;93.70
12413;DHT22;13877;18.896;-99.222;2023-07-13T04:03:17;24.90;93.40
12413;DHT22;13877;18.896;-99.222;2023-07-13T04:05:43;24.90;93.00
12413;DHT22;13877;18.896;-99.222;2023-07-13T04:08:12;24.90;92.00
12413;DHT22;13877;18.896;-99.222;2023-07-13T04:10:39;24.70;92.50
12413;DHT22;13877;18.896;-99.222;2023-07-13T04:13:05;24.50;93.20
12413;DHT22;13877;18.896;-99.222;2023-07-13T04:15:32;24.30;93.80
12413;DHT22;13877;18.896;-99.222;2023-07-13T04:17:58;24.00;94.70
12413;DHT22;13877;18.896;-99.222;2023-07-13T04:20:25;23.90;95.10
12413;DHT22;13877;18.896;-99.222;2023-07-13T04:22:52;23.80;95.50
12413;DHT22;13877;18.896;-99.222;2023-07-13T04:25:21;23.70;96.10
12413;DHT22;13877;18.896;-99.222;2023-07-13T04:27:49;23.60;97.00
12413;DHT22;13877;18.896;-99.222;2023-07-13T04:30:15;23.00;99.10
12413;DHT22;13877;18.896;-99.222;2023-07-13T04:32:42;22.50;99.90
12413;DHT22;13877;18.896;-99.222;2023-07-13T04:35:08;21.90;99.90
12413;DHT22;13877;18.896;-99.222;2023-07-13T04:37:40;21.60;99.90
12413;DHT22;13877;18.896;-99.222;2023-07-13T04:40:07;21.30;99.90
12413;DHT22;13877;18.896;-99.222;2023-07-13T04:42:38;21.10;99.90
12413;DHT22;13877;18.896;-99.222;2023-07-13T04:45:06;21.00;99.90
12413;DHT22;13877;18.896;-99.222;2023-07-13T04:47:32;20.90;99.90
12413;DHT22;13877;18.896;-99.222;2023-07-13T04:49:59;20.90;99.90
12413;DHT22;13877;18.896;-99.222;2023-07-13T04:52:25;20.80;99.90
12413;DHT22;13877;18.896;-99.222;2023-07-13T04:54:52;20.80;99.90
12413;DHT22;13877;18.896;-99.222;2023-07-13T04:57:18;20.80;99.90
12413;DHT22;13877;18.896;-99.222;2023-07-13T04:59:45;20.80;99.90
12413;DHT22;13877;18.896;-99.222;2023-07-13T05:02:11;20.70;99.90
12413;DHT22;13877;18.896;-99.222;2023-07-13T05:04:38;20.80;99.90
12413;DHT22;13877;18.896;-99.222;2023-07-13T05:07:05;20.80;99.90
12413;DHT22;13877;18.896;-99.222;2023-07-13T05:09:32;20.70;99.90
12413;DHT22;13877;18.896;-99.222;2023-07-13T05:11:58;20.70;99.90
12413;DHT22;13877;18.896;-99.222;2023-07-13T05:14:25;20.70;99.90
12413;DHT22;13877;18.896;-99.222;2023-07-13T05:16:51;20.70;99.90
12413;DHT22;13877;18.896;-99.222;2023-07-13T05:19:17;20.80;99.90
12413;DHT22;13877;18.896;-99.222;2023-07-13T05:21:44;20.80;99.90
12413;DHT22;13877;18.896;-99.222;2023-07-13T05:24:10;20.80;99.90
12413;DHT22;13877;18.896;-99.222;2023-07-13T05:26:37;20.80;99.90
12413;DHT22;13877;18.896;-99.222;2023-07-13T05:29:04;20.90;99.90
12413;DHT22;13877;18.896;-99.222;2023-07-13T05:31:30;21.00;99.90
12413;DHT22;13877;18.896;-99.222;2023-07-13T05:33:57;21.00;99.90
12413;DHT22;13877;18.896;-99.222;2023-07-13T05:36:23;21.00;99.90
12413;DHT22;13877;18.896;-99.222;2023-07-13T05:38:49;21.00;99.90
12413;DHT22;13877;18.896;-99.222;2023-07-13T05:41:16;21.10;99.90
12413;DHT22;13877;18.896;-99.222;2023-07-13T05:43:42;21.20;99.90
12413;DHT22;13877;18.896;-99.222;2023-07-13T05:46:09;21.20;99.90
12413;DHT22;13877;18.896;-99.222;2023-07-13T05:48:35;21.30;99.90
12413;DHT22;13877;18.896;-99.222;2023-07-13T05:51:01;21.30;99.90
12413;DHT22;13877;18.896;-99.222;2023-07-13T05:53:28;21.30;99.90
12413;DHT22;13877;18.896;-99.222;2023-07-13T05:55:55;21.40;99.90
12413;DHT22;13877;18.896;-99.222;2023-07-13T05:58:22;21.40;99.90
12413;DHT22;13877;18.896;-99.222;2023-07-13T06:00:48;21.40;99.90
12413;DHT22;13877;18.896;-99.222;2023-07-13T06:03:15;21.40;99.90
12413;DHT22;13877;18.896;-99.222;2023-07-13T06:05:41;21.40;99.90
12413;DHT22;13877;18.896;-99.222;2023-07-13T06:08:08;21.50;99.90
12413;DHT22;13877;18.896;-99.222;2023-07-13T06:10:35;21.50;99.90
12413;DHT22;13877;18.896;-99.222;2023-07-13T06:13:01;21.40;99.90
12413;DHT22;13877;18.896;-99.222;2023-07-13T06:15:29;21.50;99.90
12413;DHT22;13877;18.896;-99.222;2023-07-13T06:17:55;21.60;99.90
12413;DHT22;13877;18.896;-99.222;2023-07-13T06:20:21;21.60;99.90
12413;DHT22;13877;18.896;-99.222;2023-07-13T06:22:48;21.50;99.90
12413;DHT22;13877;18.896;-99.222;2023-07-13T06:25:14;21.60;99.90
12413;DHT22;13877;18.896;-99.222;2023-07-13T06:27:41;21.60;99.90
12413;DHT22;13877;18.896;-99.222;2023-07-13T06:30:07;21.60;99.90
12413;DHT22;13877;18.896;-99.222;2023-07-13T06:32:34;21.70;99.90
12413;DHT22;13877;18.896;-99.222;2023-07-13T06:35:00;21.70;99.90
12413;DHT22;13877;18.896;-99.222;2023-07-13T06:37:27;21.70;99.90
12413;DHT22;13877;18.896;-99.222;2023-07-13T06:39:53;21.70;99.90
12413;DHT22;13877;18.896;-99.222;2023-07-13T06:42:19;21.80;99.90
12413;DHT22;13877;18.896;-99.222;2023-07-13T06:44:46;21.80;99.90
12413;DHT22;13877;18.896;-99.222;2023-07-13T06:47:12;21.70;99.90
12413;DHT22;13877;18.896;-99.222;2023-07-13T06:49:39;21.70;99.90
12413;DHT22;13877;18.896;-99.222;2023-07-13T06:52:05;21.60;99.90
12413;DHT22;13877;18.896;-99.222;2023-07-13T06:54:32;21.50;99.90
12413;DHT22;13877;18.896;-99.222;2023-07-13T06:56:58;21.40;99.90
12413;DHT22;13877;18.896;-99.222;2023-07-13T06:59:24;21.40;99.90
12413;DHT22;13877;18.896;-99.222;2023-07-13T07:01:51;21.60;99.90
12413;DHT22;13877;18.896;-99.222;2023-07-13T07:04:17;21.50;99.90
12413;DHT22;13877;18.896;-99.222;2023-07-13T07:06:44;21.50;99.90
12413;DHT22;13877;18.896;-99.222;2023-07-13T07:09:11;21.20;99.90
12413;DHT22;13877;18.896;-99.222;2023-07-13T07:11:38;20.80;99.90
12413;DHT22;13877;18.896;-99.222;2023-07-13T07:14:04;20.60;99.90
12413;DHT22;13877;18.896;-99.222;2023-07-13T07:16:31;20.50;99.90
12413;DHT22;13877;18.896;-99.222;2023-07-13T07:18:57;20.60;99.90
12413;DHT22;13877;18.896;-99.222;2023-07-13T07:21:23;20.60;99.90
12413;DHT22;13877;18.896;-99.222;2023-07-13T07:23:51;20.60;99.90
12413;DHT22;13877;18.896;-99.222;2023-07-13T07:26:17;20.60;99.90
12413;DHT22;13877;18.896;-99.222;2023-07-13T07:28:44;20.60;99.90
12413;DHT22;13877;18.896;-99.222;2023-07-13T07:31:10;20.50;99.90
12413;DHT22;13877;18.896;-99.222;2023-07-13T07:45:26;20.60;99.90
12413;DHT22;13877;18.896;-99.222;2023-07-13T07:47:53;19.90;99.90
12413;DHT22;13877;18.896;-99.222;2023-07-13T07:50:20;19.80;99.90
12413;DHT22;13877;18.896;-99.222;2023-07-13T07:52:47;19.90;99.90
12413;DHT22;13877;18.896;-99.222;2023-07-13T07:55:13;19.90;99.90
12413;DHT22;13877;18.896;-99.222;2023-07-13T07:57:40;19.90;99.90
12413;DHT22;13877;18.896;-99.222;2023-07-13T08:00:06;19.80;99.90
12413;DHT22;13877;18.896;-99.222;2023-07-13T08:02:40;19.80;99.90
12413;DHT22;13877;18.896;-99.222;2023-07-13T08:05:07;19.70;99.90
12413;DHT22;13877;18.896;-99.222;2023-07-13T08:07:34;19.70;99.90
12413;DHT22;13877;18.896;-99.222;2023-07-13T08:10:01;19.60;99.90
12413;DHT22;13877;18.896;-99.222;2023-07-13T08:12:27;19.40;99.90
12413;DHT22;13877;18.896;-99.222;2023-07-13T08:14:53;19.30;99.90
12413;DHT22;13877;18.896;-99.222;2023-07-13T08:17:23;19.20;99.90
12413;DHT22;13877;18.896;-99.222;2023-07-13T08:19:50;19.30;99.90
12413;DHT22;13877;18.896;-99.222;2023-07-13T08:22:16;19.20;99.90
12413;DHT22;13877;18.896;-99.222;2023-07-13T08:24:43;19.20;99.90
12413;DHT22;13877;18.896;-99.222;2023-07-13T08:27:12;19.20;99.90
12413;DHT22;13877;18.896;-99.222;2023-07-13T08:29:39;19.00;99.90
12413;DHT22;13877;18.896;-99.222;2023-07-13T08:32:06;19.00;99.90
12413;DHT22;13877;18.896;-99.222;2023-07-13T08:34:35;19.00;99.90
12413;DHT22;13877;18.896;-99.222;2023-07-13T08:37:01;18.80;99.90
12413;DHT22;13877;18.896;-99.222;2023-07-13T08:39:30;18.80;99.90
12413;DHT22;13877;18.896;-99.222;2023-07-13T08:41:58;18.70;99.90
12413;DHT22;13877;18.896;-99.222;2023-07-13T08:44:29;18.70;99.90
12413;DHT22;13877;18.896;-99.222;2023-07-13T08:46:56;18.80;99.90
12413;DHT22;13877;18.896;-99.222;2023-07-13T08:49:25;18.80;99.90
12413;DHT22;13877;18.896;-99.222;2023-07-13T08:51:57;18.70;99.90
12413;DHT22;13877;18.896;-99.222;2023-07-13T08:56:55;18.70;99.90
12413;DHT22;13877;18.896;-99.222;2023-07-13T08:59:24;18.40;99.90
12413;DHT22;13877;18.896;-99.222;2023-07-13T09:04:41;18.60;99.90
12413;DHT22;13877;18.896;-99.222;2023-07-13T09:14:45;19.40;99.90
12413;DHT22;13877;18.896;-99.222;2023-07-13T09:17:20;19.50;99.90
12413;DHT22;13877;18.896;-99.222;2023-07-13T09:22:32;19.80;97.30
12413;DHT22;13877;18.896;-99.222;2023-07-13T09:25:02;20.00;96.60
12413;DHT22;13877;18.896;-99.222;2023-07-13T09:27:33;20.10;96.00
12413;DHT22;13877;18.896;-99.222;2023-07-13T09:30:04;20.20;95.00
12413;DHT22;13877;18.896;-99.222;2023-07-13T09:32:39;20.30;94.70
12413;DHT22;13877;18.896;-99.222;2023-07-13T09:35:14;20.40;95.10
12413;DHT22;13877;18.896;-99.222;2023-07-13T09:37:42;20.40;94.10
12413;DHT22;13877;18.896;-99.222;2023-07-13T09:40:11;20.40;94.30
12413;DHT22;13877;18.896;-99.222;2023-07-13T09:42:41;20.40;94.00
12413;DHT22;13877;18.896;-99.222;2023-07-13T09:45:08;20.40;93.60
12413;DHT22;13877;18.896;-99.222;2023-07-13T09:47:39;20.40;94.00
12413;DHT22;13877;18.896;-99.222;2023-07-13T09:50:07;20.40;93.50
12413;DHT22;13877;18.896;-99.222;2023-07-13T09:52:44;20.50;93.90
12413;DHT22;13877;18.896;-99.222;2023-07-13T09:55:28;20.40;92.70
12413;DHT22;13877;18.896;-99.222;2023-07-13T09:57:55;20.40;92.40
12413;DHT22;13877;18.896;-99.222;2023-07-13T10:00:26;20.50;92.60
12413;DHT22;13877;18.896;-99.222;2023-07-13T10:03:09;20.50;91.20
12413;DHT22;13877;18.896;-99.222;2023-07-13T10:05:41;20.60;92.10
12413;DHT22;13877;18.896;-99.222;2023-07-13T10:08:16;20.50;91.50
12413;DHT22;13877;18.896;-99.222;2023-07-13T10:10:44;20.40;91.50
12413;DHT22;13877;18.896;-99.222;2023-07-13T10:13:24;20.40;91.20
12413;DHT22;13877;18.896;-99.222;2023-07-13T10:15:51;20.40;90.70
12413;DHT22;13877;18.896;-99.222;2023-07-13T10:18:18;20.60;91.50
12413;DHT22;13877;18.896;-99.222;2023-07-13T10:20:45;20.50;91.80
12413;DHT22;13877;18.896;-99.222;2023-07-13T10:23:13;20.30;92.40
12413;DHT22;13877;18.896;-99.222;2023-07-13T10:25:42;20.00;92.60
12413;DHT22;13877;18.896;-99.222;2023-07-13T10:28:29;20.00;92.20
12413;DHT22;13877;18.896;-99.222;2023-07-13T10:30:56;19.90;92.60
12413;DHT22;13877;18.896;-99.222;2023-07-13T10:33:24;20.00;92.00
12413;DHT22;13877;18.896;-99.222;2023-07-13T10:35:51;20.00;91.80
12413;DHT22;13877;18.896;-99.222;2023-07-13T10:38:21;19.90;91.90
12413;DHT22;13877;18.896;-99.222;2023-07-13T10:40:54;19.90;91.60
12413;DHT22;13877;18.896;-99.222;2023-07-13T10:43:27;19.80;91.50
12413;DHT22;13877;18.896;-99.222;2023-07-13T10:45:56;19.70;91.40
12413;DHT22;13877;18.896;-99.222;2023-07-13T10:48:23;19.80;90.70
12413;DHT22;13877;18.896;-99.222;2023-07-13T10:50:50;20.00;90.30
12413;DHT22;13877;18.896;-99.222;2023-07-13T10:53:27;20.10;90.60
12413;DHT22;13877;18.896;-99.222;2023-07-13T10:58:22;20.10;90.60
12413;DHT22;13877;18.896;-99.222;2023-07-13T11:00:50;20.00;91.40
12413;DHT22;13877;18.896;-99.222;2023-07-13T11:03:19;19.90;91.40
12413;DHT22;13877;18.896;-99.222;2023-07-13T11:05:48;20.00;91.20
12413;DHT22;13877;18.896;-99.222;2023-07-13T11:08:32;19.90;91.40
12413;DHT22;13877;18.896;-99.222;2023-07-13T11:10:59;19.70;91.30
12413;DHT22;13877;18.896;-99.222;2023-07-13T11:18:51;19.90;90.00
12413;DHT22;13877;18.896;-99.222;2023-07-13T11:23:45;20.20;90.00
12413;DHT22;13877;18.896;-99.222;2023-07-13T11:29:07;20.10;89.70
12413;DHT22;13877;18.896;-99.222;2023-07-13T11:31:34;20.10;89.60
12413;DHT22;13877;18.896;-99.222;2023-07-13T11:34:01;20.00;90.10
12413;DHT22;13877;18.896;-99.222;2023-07-13T11:36:31;20.10;89.70
12413;DHT22;13877;18.896;-99.222;2023-07-13T11:39:04;20.00;90.40
12413;DHT22;13877;18.896;-99.222;2023-07-13T11:41:31;19.90;90.00
12413;DHT22;13877;18.896;-99.222;2023-07-13T11:44:18;19.80;89.80
12413;DHT22;13877;18.896;-99.222;2023-07-13T11:47:07;19.80;90.00
12413;DHT22;13877;18.896;-99.222;2023-07-13T11:49:32;19.90;90.20
12413;DHT22;13877;18.896;-99.222;2023-07-13T11:52:05;19.90;90.00
12413;DHT22;13877;18.896;-99.222;2023-07-13T11:54:33;19.90;90.40
12413;DHT22;13877;18.896;-99.222;2023-07-13T11:57:06;19.90;90.30
12413;DHT22;13877;18.896;-99.222;2023-07-13T11:59:38;19.90;89.90
12413;DHT22;13877;18.896;-99.222;2023-07-13T12:02:14;19.80;89.90
12413;DHT22;13877;18.896;-99.222;2023-07-13T12:04:42;19.90;88.20
12413;DHT22;13877;18.896;-99.222;2023-07-13T12:07:16;19.90;87.60
12413;DHT22;13877;18.896;-99.222;2023-07-13T12:09:42;19.90;89.30
12413;DHT22;13877;18.896;-99.222;2023-07-13T12:12:12;19.90;87.30
12413;DHT22;13877;18.896;-99.222;2023-07-13T12:14:39;19.90;87.40
12413;DHT22;13877;18.896;-99.222;2023-07-13T12:17:24;19.90;86.00
12413;DHT22;13877;18.896;-99.222;2023-07-13T12:19:52;19.90;86.70
12413;DHT22;13877;18.896;-99.222;2023-07-13T12:22:19;20.00;86.30
12413;DHT22;13877;18.896;-99.222;2023-07-13T12:24:46;20.10;86.20
12413;DHT22;13877;18.896;-99.222;2023-07-13T12:27:22;20.30;85.70
12413;DHT22;13877;18.896;-99.222;2023-07-13T12:29:59;20.50;85.50
12413;DHT22;13877;18.896;-99.222;2023-07-13T12:32:26;20.60;84.50
12413;DHT22;13877;18.896;-99.222;2023-07-13T12:34:54;20.60;89.00
12413;DHT22;13877;18.896;-99.222;2023-07-13T12:37:21;20.50;87.10
12413;DHT22;13877;18.896;-99.222;2023-07-13T12:39:48;20.50;88.80
12413;DHT22;13877;18.896;-99.222;2023-07-13T12:44:57;20.50;92.10
12413;DHT22;13877;18.896;-99.222;2023-07-13T12:47:25;20.50;92.70
12413;DHT22;13877;18.896;-99.222;2023-07-13T12:49:56;20.40;92.90
12413;DHT22;13877;18.896;-99.222;2023-07-13T12:52:24;20.40;93.50
12413;DHT22;13877;18.896;-99.222;2023-07-13T12:54:57;20.40;93.40
12413;DHT22;13877;18.896;-99.222;2023-07-13T12:57:24;20.40;93.70
12413;DHT22;13877;18.896;-99.222;2023-07-13T12:59:52;20.20;92.80
12413;DHT22;13877;18.896;-99.222;2023-07-13T13:02:29;20.10;93.40
12413;DHT22;13877;18.896;-99.222;2023-07-13T13:04:57;20.00;95.70
12413;DHT22;13877;18.896;-99.222;2023-07-13T13:07:24;20.00;95.20
12413;DHT22;13877;18.896;-99.222;2023-07-13T13:09:51;20.00;94.00
12413;DHT22;13877;18.896;-99.222;2023-07-13T13:12:19;20.20;95.00
12413;DHT22;13877;18.896;-99.222;2023-07-13T13:14:46;20.30;95.30
12413;DHT22;13877;18.896;-99.222;2023-07-13T13:17:24;20.30;93.90
12413;DHT22;13877;18.896;-99.222;2023-07-13T13:19:53;20.40;94.60
12413;DHT22;13877;18.896;-99.222;2023-07-13T13:22:20;20.50;96.70
12413;DHT22;13877;18.896;-99.222;2023-07-13T13:24:47;20.50;98.70
12413;DHT22;13877;18.896;-99.222;2023-07-13T13:27:15;20.40;98.30
12413;DHT22;13877;18.896;-99.222;2023-07-13T13:29:42;20.50;99.70
12413;DHT22;13877;18.896;-99.222;2023-07-13T13:32:10;20.60;99.90
12413;DHT22;13877;18.896;-99.222;2023-07-13T13:34:37;20.60;99.50
12413;DHT22;13877;18.896;-99.222;2023-07-13T13:37:04;20.70;99.60
12413;DHT22;13877;18.896;-99.222;2023-07-13T13:39:33;20.80;99.40
12413;DHT22;13877;18.896;-99.222;2023-07-13T13:42:00;20.90;99.20
12413;DHT22;13877;18.896;-99.222;2023-07-13T13:44:26;20.90;99.10
12413;DHT22;13877;18.896;-99.222;2023-07-13T13:46:53;20.90;98.10
12413;DHT22;13877;18.896;-99.222;2023-07-13T13:49:22;20.80;98.40
12413;DHT22;13877;18.896;-99.222;2023-07-13T13:51:50;20.70;98.20
12413;DHT22;13877;18.896;-99.222;2023-07-13T13:54:17;20.60;97.20
12413;DHT22;13877;18.896;-99.222;2023-07-13T13:56:45;20.70;98.90
12413;DHT22;13877;18.896;-99.222;2023-07-13T13:59:11;20.60;97.40
12413;DHT22;13877;18.896;-99.222;2023-07-13T14:01:38;20.70;97.50
12413;DHT22;13877;18.896;-99.222;2023-07-13T14:04:05;20.90;98.50
12413;DHT22;13877;18.896;-99.222;2023-07-13T14:06:32;21.20;99.80
12413;DHT22;13877;18.896;-99.222;2023-07-13T14:09:00;21.30;98.30
12413;DHT22;13877;18.896;-99.222;2023-07-13T14:11:26;21.50;97.30
12413;DHT22;13877;18.896;-99.222;2023-07-13T14:13:57;21.90;97.70
12413;DHT22;13877;18.896;-99.222;2023-07-13T14:16:28;22.20;98.30
12413;DHT22;13877;18.896;-99.222;2023-07-13T14:18:55;22.00;98.40
12413;DHT22;13877;18.896;-99.222;2023-07-13T14:21:24;22.10;98.10
12413;DHT22;13877;18.896;-99.222;2023-07-13T14:23:50;22.20;97.80
12413;DHT22;13877;18.896;-99.222;2023-07-13T14:26:21;22.30;98.20
12413;DHT22;13877;18.896;-99.222;2023-07-13T14:28:49;22.40;97.90
12413;DHT22;13877;18.896;-99.222;2023-07-13T14:31:16;22.60;98.30
12413;DHT22;13877;18.896;-99.222;2023-07-13T14:33:43;23.20;97.40
12413;DHT22;13877;18.896;-99.222;2023-07-13T14:36:20;23.50;97.40
12413;DHT22;13877;18.896;-99.222;2023-07-13T14:38:48;23.70;97.60
12413;DHT22;13877;18.896;-99.222;2023-07-13T14:41:26;24.20;97.00
12413;DHT22;13877;18.896;-99.222;2023-07-13T14:43:53;24.80;95.60
12413;DHT22;13877;18.896;-99.222;2023-07-13T14:48:49;24.80;95.20
12413;DHT22;13877;18.896;-99.222;2023-07-13T14:51:16;24.90;94.90
12413;DHT22;13877;18.896;-99.222;2023-07-13T14:53:42;24.80;94.30
12413;DHT22;13877;18.896;-99.222;2023-07-13T14:56:12;24.90;94.20
12413;DHT22;13877;18.896;-99.222;2023-07-13T14:58:39;25.00;94.60
12413;DHT22;13877;18.896;-99.222;2023-07-13T15:01:10;25.20;94.60
12413;DHT22;13877;18.896;-99.222;2023-07-13T15:03:38;25.20;93.60
12413;DHT22;13877;18.896;-99.222;2023-07-13T15:06:09;25.40;93.50
12413;DHT22;13877;18.896;-99.222;2023-07-13T15:08:36;25.70;93.70
12413;DHT22;13877;18.896;-99.222;2023-07-13T15:11:02;25.90;92.40
12413;DHT22;13877;18.896;-99.222;2023-07-13T15:13:30;26.20;91.70
12413;DHT22;13877;18.896;-99.222;2023-07-13T15:15:58;26.40;90.70
12413;DHT22;13877;18.896;-99.222;2023-07-13T15:18:24;26.40;91.10
12413;DHT22;13877;18.896;-99.222;2023-07-13T15:20:53;26.40;91.30
12413;DHT22;13877;18.896;-99.222;2023-07-13T15:23:21;26.30;88.00
12413;DHT22;13877;18.896;-99.222;2023-07-13T15:25:48;26.00;87.90
12413;DHT22;13877;18.896;-99.222;2023-07-13T15:28:15;26.30;90.00
12413;DHT22;13877;18.896;-99.222;2023-07-13T15:30:43;26.50;90.30
12413;DHT22;13877;18.896;-99.222;2023-07-13T15:33:30;26.50;90.50
12413;DHT22;13877;18.896;-99.222;2023-07-13T15:35:57;26.80;89.40
12413;DHT22;13877;18.896;-99.222;2023-07-13T15:38:26;26.70;88.30
12413;DHT22;13877;18.896;-99.222;2023-07-13T15:40:53;26.50;88.00
12413;DHT22;13877;18.896;-99.222;2023-07-13T15:43:20;26.70;87.80
12413;DHT22;13877;18.896;-99.222;2023-07-13T15:45:47;26.70;86.00
12413;DHT22;13877;18.896;-99.222;2023-07-13T15:48:20;26.60;79.90
12413;DHT22;13877;18.896;-99.222;2023-07-13T15:50:48;26.80;79.20
12413;DHT22;13877;18.896;-99.222;2023-07-13T15:53:17;27.00;79.40
12413;DHT22;13877;18.896;-99.222;2023-07-13T15:55:44;26.90;77.80